createdAt,value
2023-05-08T00:00:41.968Z,95.80
2023-05-08T00:03:11.109Z,95.80
2023-05-08T00:05:38.898Z,95.90
2023-05-08T00:08:06.778Z,95.90
2023-05-08T00:10:34.559Z,95.90
2023-05-08T00:13:02.393Z,95.90
2023-05-08T00:15:30.212Z,95.90
2023-05-08T00:17:58.551Z,95.90
2023-05-08T00:20:27.844Z,96.00
2023-05-08T00:22:56.623Z,96.00
2023-05-08T00:25:24.330Z,96.00
2023-05-08T00:27:52.027Z,96.00
2023-05-08T00:30:20.166Z,96.00
2023-05-08T00:32:48.011Z,96.00
2023-05-08T00:35:15.781Z,96.00
2023-05-08T00:37:44.824Z,96.00
2023-05-08T00:40:13.153Z,96.10
2023-05-08T00:42:41.082Z,96.10
2023-05-08T00:45:10.174Z,96.10
2023-05-08T00:47:37.989Z,96.10
2023-05-08T00:50:06.755Z,96.20
2023-05-08T00:52:35.110Z,96.10
2023-05-08T00:55:06.320Z,96.20
2023-05-08T00:57:35.510Z,96.20
2023-05-08T01:00:07.470Z,96.20
2023-05-08T01:02:35.884Z,96.20
2023-05-08T01:05:04.575Z,96.20
2023-05-08T01:07:33.084Z,96.30
2023-05-08T01:10:00.802Z,96.30
2023-05-08T01:12:40.889Z,96.30
2023-05-08T01:15:16.804Z,96.30
2023-05-08T01:17:57.340Z,96.30
2023-05-08T01:20:36.687Z,96.30
2023-05-08T01:23:33.414Z,96.30
2023-05-08T01:26:27.112Z,96.40
2023-05-08T01:29:46.801Z,96.40
2023-05-08T01:32:20.111Z,96.50
2023-05-08T01:34:58.878Z,96.50
2023-05-08T01:37:33.564Z,96.50
2023-05-08T01:40:10.502Z,96.50
2023-05-08T01:42:47.614Z,96.50
2023-05-08T01:45:21.806Z,96.40
2023-05-08T01:47:57.390Z,96.50
2023-05-08T01:50:35.319Z,96.50
2023-05-08T01:53:14.491Z,96.50
2023-05-08T01:55:44.747Z,96.50
2023-05-08T01:58:13.590Z,96.50
2023-05-08T02:00:44.018Z,96.60
2023-05-08T02:03:16.523Z,96.60
2023-05-08T02:05:44.997Z,96.60
2023-05-08T02:08:14.957Z,96.60
2023-05-08T02:10:44.226Z,96.60
2023-05-08T02:13:14.126Z,96.60
2023-05-08T02:15:43.426Z,96.60
2023-05-08T02:18:12.977Z,96.60
2023-05-08T02:20:42.482Z,96.70
2023-05-08T02:23:11.204Z,96.60
2023-05-08T02:25:39.951Z,96.70
2023-05-08T02:28:08.383Z,96.70
2023-05-08T02:30:37.037Z,96.80
2023-05-08T02:33:08.208Z,96.80
2023-05-08T02:35:39.945Z,96.80
2023-05-08T02:38:10.710Z,96.80
2023-05-08T02:40:42.748Z,96.80
2023-05-08T02:43:10.577Z,96.80
2023-05-08T02:45:44.370Z,96.80
2023-05-08T02:48:15.911Z,96.80
2023-05-08T02:50:56.180Z,96.90
2023-05-08T02:53:32.619Z,96.90
2023-05-08T02:56:06.709Z,96.90
2023-05-08T02:58:41.977Z,96.80
2023-05-08T03:01:19.288Z,96.80
2023-05-08T03:03:54.097Z,96.90
2023-05-08T03:06:26.932Z,96.90
2023-05-08T03:09:01.203Z,96.90
2023-05-08T03:11:35.156Z,96.90
2023-05-08T03:14:05.403Z,96.90
2023-05-08T03:16:35.902Z,97.00
2023-05-08T03:19:09.420Z,97.00
2023-05-08T03:21:39.502Z,97.00
2023-05-08T03:24:10.063Z,97.00
2023-05-08T03:26:38.084Z,97.00
2023-05-08T03:29:07.096Z,97.00
2023-05-08T03:31:35.283Z,97.20
2023-05-08T03:34:03.904Z,97.00
2023-05-08T03:36:32.420Z,96.90
2023-05-08T03:39:02.485Z,97.00
2023-05-08T03:41:30.436Z,97.00
2023-05-08T03:43:59.576Z,97.00
2023-05-08T03:46:27.684Z,97.00
2023-05-08T03:48:55.727Z,97.00
2023-05-08T03:51:23.629Z,97.00
2023-05-08T03:53:51.356Z,97.00
2023-05-08T03:56:20.859Z,97.00
2023-05-08T03:58:54.310Z,97.00
2023-05-08T04:01:26.486Z,97.00
2023-05-08T04:04:00.870Z,97.10
2023-05-08T04:06:42.017Z,97.10
2023-05-08T04:09:18.609Z,97.10
2023-05-08T04:11:58.938Z,97.10
2023-05-08T04:14:31.418Z,97.10
2023-05-08T04:17:04.669Z,97.10
2023-05-08T04:19:39.869Z,97.10
2023-05-08T04:22:09.167Z,97.10
2023-05-08T04:24:42.954Z,97.10
2023-05-08T04:27:13.427Z,97.20
2023-05-08T04:29:41.565Z,97.20
2023-05-08T04:32:11.360Z,97.20
2023-05-08T04:34:39.353Z,97.20
2023-05-08T04:37:08.232Z,97.20
2023-05-08T04:39:35.962Z,97.20
2023-05-08T04:42:04.721Z,97.20
2023-05-08T04:44:33.814Z,97.20
2023-05-08T04:47:01.513Z,97.30
2023-05-08T04:49:29.221Z,97.20
2023-05-08T04:51:56.899Z,97.20
2023-05-08T04:54:24.643Z,97.60
2023-05-08T04:56:52.353Z,97.30
2023-05-08T04:59:20.052Z,97.20
2023-05-08T05:01:49.421Z,97.30
2023-05-08T05:04:17.178Z,97.20
2023-05-08T05:06:45.329Z,97.30
2023-05-08T05:09:13.167Z,97.30
2023-05-08T05:11:40.903Z,97.40
2023-05-08T05:14:08.669Z,97.40
2023-05-08T05:16:36.852Z,97.40
2023-05-08T05:19:05.957Z,97.40
2023-05-08T05:21:33.750Z,97.40
2023-05-08T05:24:01.590Z,97.40
2023-05-08T05:26:29.315Z,97.40
2023-05-08T05:28:57.047Z,97.50
2023-05-08T05:31:24.815Z,97.50
2023-05-08T05:33:52.609Z,97.50
2023-05-08T05:36:21.681Z,97.50
2023-05-08T05:38:49.544Z,97.60
2023-05-08T05:41:17.291Z,97.90
2023-05-08T05:43:45.050Z,97.60
2023-05-08T05:46:13.094Z,97.60
2023-05-08T05:48:40.903Z,97.60
2023-05-08T05:51:08.996Z,97.60
2023-05-08T05:53:38.047Z,97.60
2023-05-08T05:56:06.569Z,97.60
2023-05-08T05:58:34.324Z,97.60
2023-05-08T06:01:02.114Z,97.60
2023-05-08T06:03:30.084Z,97.60
2023-05-08T06:05:58.470Z,97.60
2023-05-08T06:08:26.327Z,97.60
2023-05-08T06:10:55.364Z,97.60
2023-05-08T06:13:23.270Z,97.60
2023-05-08T06:15:51.428Z,97.60
2023-05-08T06:18:19.244Z,97.60
2023-05-08T06:20:46.931Z,97.70
2023-05-08T06:23:14.681Z,97.60
2023-05-08T06:25:42.381Z,98.00
2023-05-08T06:28:11.445Z,97.70
2023-05-08T06:30:39.244Z,97.70
2023-05-08T06:33:07.085Z,97.70
2023-05-08T06:35:34.788Z,97.70
2023-05-08T06:38:02.482Z,97.60
2023-05-08T06:40:30.300Z,97.60
2023-05-08T06:42:58.017Z,97.60
2023-05-08T06:45:27.154Z,97.60
2023-05-08T06:47:54.896Z,97.60
2023-05-08T06:50:22.884Z,97.60
2023-05-08T06:52:50.640Z,97.60
2023-05-08T06:55:18.686Z,97.60
2023-05-08T06:57:46.746Z,97.70
2023-05-08T07:00:15.455Z,97.60
2023-05-08T07:02:44.516Z,97.60
2023-05-08T07:05:12.561Z,97.60
2023-05-08T07:07:42.491Z,97.70
2023-05-08T07:10:10.867Z,97.60
2023-05-08T07:12:38.845Z,97.60
2023-05-08T07:15:17.835Z,97.60
2023-05-08T07:17:54.500Z,97.90
2023-05-08T07:20:24.118Z,97.50
2023-05-08T07:22:51.848Z,97.50
2023-05-08T07:25:19.748Z,97.60
2023-05-08T07:27:47.491Z,97.60
2023-05-08T07:30:15.908Z,97.60
2023-05-08T07:32:43.629Z,97.60
2023-05-08T07:35:13.297Z,97.60
2023-05-08T07:37:41.291Z,97.50
2023-05-08T07:40:09.607Z,97.60
2023-05-08T07:42:42.055Z,97.50
2023-05-08T07:45:12.075Z,97.50
2023-05-08T07:47:40.394Z,97.50
2023-05-08T07:50:08.722Z,97.50
2023-05-08T07:52:37.823Z,97.60
2023-05-08T07:55:06.525Z,97.50
2023-05-08T07:57:37.938Z,97.50
2023-05-08T08:00:07.511Z,97.40
2023-05-08T08:02:35.451Z,97.50
2023-05-08T08:05:03.428Z,97.50
2023-05-08T08:07:32.590Z,97.50
2023-05-08T08:10:03.464Z,97.50
2023-05-08T08:12:31.894Z,97.50
2023-05-08T08:14:59.616Z,97.90
2023-05-08T08:17:28.965Z,97.60
2023-05-08T08:19:57.436Z,97.60
2023-05-08T08:22:25.471Z,97.60
2023-05-08T08:24:55.825Z,97.60
2023-05-08T08:27:25.037Z,97.60
2023-05-08T08:30:01.490Z,97.60
2023-05-08T08:32:36.343Z,97.60
2023-05-08T08:35:04.457Z,97.60
2023-05-08T08:37:32.180Z,97.60
2023-05-08T08:40:01.336Z,97.70
2023-05-08T08:42:31.514Z,97.70
2023-05-08T08:44:59.277Z,97.70
2023-05-08T08:47:29.724Z,98.00
2023-05-08T08:49:59.810Z,97.70
2023-05-08T08:52:32.938Z,97.70
2023-05-08T08:55:03.398Z,97.70
2023-05-08T08:57:35.028Z,97.80
2023-05-08T09:00:05.356Z,97.80
2023-05-08T09:02:33.171Z,97.60
2023-05-08T09:05:01.748Z,97.60
2023-05-08T09:07:30.987Z,97.60
2023-05-08T09:09:59.025Z,97.60
2023-05-08T09:12:26.782Z,97.70
2023-05-08T09:14:56.518Z,97.70
2023-05-08T09:17:24.419Z,97.70
2023-05-08T09:19:53.173Z,97.70
2023-05-08T09:22:23.621Z,97.60
2023-05-08T09:24:58.813Z,97.50
2023-05-08T09:27:27.896Z,97.50
2023-05-08T09:30:04.772Z,97.50
2023-05-08T09:32:34.711Z,97.60
2023-05-08T09:35:02.937Z,97.60
2023-05-08T09:37:30.863Z,97.50
2023-05-08T09:40:15.252Z,97.50
2023-05-08T09:42:42.961Z,97.50
2023-05-08T09:45:13.021Z,97.40
2023-05-08T09:47:49.413Z,97.40
2023-05-08T09:50:17.210Z,97.40
2023-05-08T09:52:48.384Z,97.40
2023-05-08T09:55:16.465Z,97.30
2023-05-08T09:57:54.149Z,97.30
2023-05-08T10:00:24.568Z,97.30
2023-05-08T10:02:56.996Z,97.30
2023-05-08T10:05:27.048Z,97.30
2023-05-08T10:07:54.957Z,97.30
2023-05-08T10:10:30.524Z,97.30
2023-05-08T10:12:59.503Z,97.40
2023-05-08T10:15:31.162Z,97.40
2023-05-08T10:18:05.445Z,97.40
2023-05-08T10:20:34.623Z,97.50
2023-05-08T10:23:04.237Z,97.50
2023-05-08T10:25:34.499Z,97.60
2023-05-08T10:28:11.063Z,97.60
2023-05-08T10:30:45.187Z,97.70
2023-05-08T10:33:17.965Z,97.90
2023-05-08T10:35:46.627Z,97.60
2023-05-08T10:38:17.470Z,97.80
2023-05-08T10:40:46.004Z,97.80
2023-05-08T10:43:14.223Z,97.70
2023-05-08T10:45:43.729Z,97.70
2023-05-08T10:48:21.253Z,97.80
2023-05-08T10:50:59.618Z,97.80
2023-05-08T10:53:39.788Z,97.80
2023-05-08T10:56:08.100Z,97.80
2023-05-08T10:58:39.098Z,97.80
2023-05-08T11:01:15.840Z,97.90
2023-05-08T11:03:46.572Z,97.90
2023-05-08T11:06:14.911Z,97.90
2023-05-08T11:08:51.081Z,97.90
2023-05-08T11:11:26.802Z,97.90
2023-05-08T11:13:59.617Z,97.90
2023-05-08T11:17:06.849Z,97.90
2023-05-08T11:19:34.851Z,98.00
2023-05-08T11:22:16.953Z,98.00
2023-05-08T11:24:55.235Z,97.90
2023-05-08T11:27:50.719Z,97.90
2023-05-08T11:30:37.685Z,98.00
2023-05-08T11:33:17.198Z,98.00
2023-05-08T11:35:50.474Z,98.00
2023-05-08T11:38:30.589Z,98.00
2023-05-08T11:41:04.195Z,98.10
2023-05-08T11:44:14.714Z,98.10
2023-05-08T11:46:44.707Z,98.10
2023-05-08T11:49:16.829Z,98.10
2023-05-08T11:51:47.272Z,98.10
2023-05-08T11:54:17.424Z,98.20
2023-05-08T11:56:47.955Z,98.20
2023-05-08T11:59:16.993Z,98.20
2023-05-08T12:01:53.587Z,98.30
2023-05-08T12:04:29.638Z,98.30
2023-05-08T12:06:59.780Z,98.40
2023-05-08T12:09:27.925Z,98.40
2023-05-08T12:11:58.580Z,98.50
2023-05-08T12:14:26.332Z,98.40
2023-05-08T15:39:15.754Z,98.00
2023-05-08T15:41:43.503Z,97.80
2023-05-08T15:44:11.340Z,97.70
2023-05-08T15:46:39.105Z,97.60
2023-05-08T15:49:07.015Z,97.50
2023-05-08T15:51:34.825Z,97.50
2023-05-08T15:54:02.586Z,97.50
2023-05-08T15:56:31.699Z,97.50
2023-05-08T15:58:59.533Z,97.50
2023-05-08T16:01:27.348Z,97.50
2023-05-08T16:03:55.124Z,97.40
2023-05-08T16:06:22.877Z,97.40
2023-05-08T16:08:51.885Z,97.40
2023-05-08T16:11:19.628Z,97.40
2023-05-08T16:13:48.920Z,97.40
2023-05-08T16:16:16.749Z,97.40
2023-05-08T16:18:44.541Z,97.30
2023-05-08T16:21:13.120Z,97.30
2023-05-08T16:23:40.863Z,97.30
2023-05-08T16:26:08.587Z,97.10
2023-05-08T16:28:36.343Z,97.00
2023-05-08T16:31:07.463Z,97.00
2023-05-08T16:33:35.264Z,97.00
2023-05-08T16:36:03.031Z,97.00
2023-05-08T16:38:30.792Z,96.90
2023-05-08T16:41:03.173Z,96.90
2023-05-08T16:43:30.995Z,96.90
2023-05-08T16:45:59.521Z,96.80
2023-05-08T16:48:30.214Z,96.70
2023-05-08T16:50:58.095Z,96.70
2023-05-08T16:53:27.176Z,96.60
2023-05-08T16:55:55.090Z,96.70
2023-05-08T16:58:22.932Z,96.70
2023-05-08T17:00:50.830Z,96.70
2023-05-08T17:03:18.669Z,96.80
2023-05-08T17:05:47.884Z,96.80
2023-05-08T17:08:15.622Z,96.70
2023-05-08T17:10:43.392Z,96.80
2023-05-08T17:13:11.225Z,96.80
2023-05-08T17:15:38.965Z,96.90
2023-05-08T17:18:06.888Z,96.90
2023-05-08T17:20:40.613Z,96.80
2023-05-08T17:23:11.757Z,96.90
2023-05-08T17:25:39.548Z,96.90
2023-05-08T17:28:07.361Z,96.90
2023-05-08T17:30:35.132Z,96.90
2023-05-08T17:33:03.639Z,96.90
2023-05-08T17:35:31.698Z,96.90
2023-05-08T17:37:59.478Z,97.00
2023-05-08T17:40:28.813Z,96.90
2023-05-08T17:42:56.649Z,96.90
2023-05-08T17:45:24.574Z,97.00
2023-05-08T17:47:52.407Z,97.00
2023-05-08T17:50:20.253Z,97.00
2023-05-08T17:52:48.000Z,97.00
2023-05-08T17:55:15.771Z,97.00
2023-05-08T17:57:44.864Z,97.00
2023-05-08T18:00:14.004Z,97.00
2023-05-08T18:02:41.954Z,97.00
2023-05-08T18:05:10.446Z,97.00
2023-05-08T18:07:38.207Z,97.00
2023-05-08T18:10:07.160Z,97.00
2023-05-08T18:12:34.914Z,97.10
2023-05-08T18:15:06.378Z,97.10
2023-05-08T18:17:34.340Z,97.20
2023-05-08T18:20:04.042Z,97.20
2023-05-08T18:22:32.020Z,97.20
2023-05-08T18:25:00.505Z,97.20
2023-05-08T18:27:28.322Z,97.30
2023-05-08T18:29:56.137Z,97.20
2023-05-08T18:32:25.335Z,97.30
2023-05-08T18:34:53.155Z,97.30
2023-05-08T18:37:20.998Z,97.30
2023-05-08T18:39:49.096Z,97.30
2023-05-08T18:42:17.134Z,97.40
2023-05-08T18:44:44.916Z,97.40
2023-05-08T18:47:12.687Z,97.40
2023-05-08T18:49:41.829Z,97.40
2023-05-08T18:52:09.571Z,97.50
2023-05-08T18:54:37.348Z,97.40
2023-05-08T18:57:05.377Z,97.50
2023-05-08T18:59:33.149Z,97.50
2023-05-08T19:02:01.014Z,97.50
2023-05-08T19:04:28.862Z,97.50
2023-05-08T19:06:58.055Z,97.50
2023-05-08T19:09:25.820Z,97.50
2023-05-08T19:11:53.582Z,97.60
2023-05-08T19:14:21.341Z,97.60
2023-05-08T19:16:49.080Z,97.70
2023-05-08T19:19:16.900Z,97.70
2023-05-08T19:21:45.081Z,97.70
2023-05-08T19:24:16.177Z,97.70
2023-05-08T19:26:43.922Z,97.70
2023-05-08T19:29:11.701Z,97.60
2023-05-08T19:31:39.496Z,97.70
2023-05-08T19:34:07.320Z,97.70
2023-05-08T19:36:37.666Z,97.70
2023-05-08T19:39:05.682Z,97.70
2023-05-08T19:41:34.781Z,97.80
2023-05-08T19:44:02.581Z,97.80
2023-05-08T19:46:30.376Z,97.90
2023-05-08T19:48:58.142Z,97.90
2023-05-08T19:51:26.070Z,97.80
2023-05-08T19:53:53.895Z,97.80
2023-05-08T19:56:21.700Z,97.90
2023-05-08T19:58:50.783Z,97.80
2023-05-08T20:01:18.609Z,97.80
2023-05-08T20:03:46.643Z,97.80
2023-05-08T20:06:14.496Z,97.90
2023-05-08T20:08:42.242Z,97.90
2023-05-08T20:11:11.657Z,98.20
2023-05-08T20:13:39.818Z,98.00
2023-05-08T20:16:09.474Z,98.00
2023-05-08T20:18:37.248Z,98.00
2023-05-08T20:21:05.116Z,98.00
2023-05-08T20:23:32.966Z,98.10
2023-05-08T20:26:00.736Z,98.10
2023-05-08T20:28:28.709Z,98.10
2023-05-08T20:30:56.521Z,98.00
2023-05-08T20:33:25.592Z,98.10
2023-05-08T20:35:54.036Z,98.10
2023-05-08T20:38:22.101Z,98.10
2023-05-08T20:40:49.858Z,98.10
2023-05-08T20:43:17.694Z,98.10
2023-05-08T20:45:45.486Z,98.10
2023-05-08T20:48:13.214Z,98.10
2023-05-08T20:50:42.316Z,98.10
2023-05-08T20:53:10.045Z,98.10
2023-05-08T20:55:37.759Z,98.10
2023-05-08T20:58:06.475Z,98.10
2023-05-08T21:00:34.622Z,98.10
2023-05-08T21:03:02.557Z,98.20
2023-05-08T21:05:30.967Z,98.20
2023-05-08T21:08:02.338Z,98.20
2023-05-08T21:10:31.305Z,98.20
2023-05-08T21:12:59.252Z,98.20
2023-05-08T21:18:09.191Z,98.30
2023-05-08T21:20:37.018Z,98.30
2023-05-08T21:23:04.797Z,98.30
2023-05-08T21:25:32.653Z,98.30
2023-05-08T21:28:00.480Z,98.40
2023-05-08T21:30:28.244Z,98.30
2023-05-08T21:32:56.037Z,98.30
2023-05-08T21:35:25.215Z,98.40
2023-05-08T21:37:54.616Z,98.40
2023-05-08T21:40:22.810Z,98.40
2023-05-08T21:42:50.745Z,98.40
2023-05-08T21:45:18.541Z,98.40
2023-05-08T21:47:46.351Z,98.50
2023-05-08T21:50:14.117Z,98.40
2023-05-08T21:52:43.204Z,98.50
2023-05-08T21:55:11.603Z,98.40
2023-05-08T22:01:29.741Z,98.50
2023-05-08T22:03:58.148Z,98.40
2023-05-08T22:06:26.071Z,98.40
2023-05-08T22:08:55.130Z,98.50
2023-05-08T22:11:22.877Z,98.50
2023-05-08T22:13:50.586Z,98.50
2023-05-08T22:16:18.910Z,98.50
2023-05-08T22:18:46.662Z,98.60
2023-05-08T22:21:14.487Z,98.60
2023-05-08T22:23:42.193Z,98.60
2023-05-08T22:26:11.248Z,98.60
2023-05-08T22:28:39.027Z,98.60
2023-05-08T22:31:07.375Z,98.60
2023-05-08T22:33:35.076Z,98.60
2023-05-08T22:36:02.780Z,98.90
2023-05-08T22:38:30.490Z,98.70
2023-05-08T22:41:00.016Z,98.60
2023-05-08T22:43:29.336Z,98.70
2023-05-08T22:45:58.327Z,98.70
2023-05-08T22:48:26.242Z,98.60
2023-05-08T22:50:53.988Z,98.60
2023-05-08T22:53:22.396Z,98.70
2023-05-08T22:55:50.337Z,99.00
2023-05-08T22:58:18.057Z,98.70
2023-05-08T23:00:47.283Z,98.70
2023-05-08T23:03:16.420Z,98.70
2023-05-08T23:05:44.917Z,98.70
2023-05-08T23:08:12.681Z,98.70
2023-05-08T23:10:40.395Z,98.70
2023-05-08T23:13:08.264Z,98.80
2023-05-08T23:15:36.021Z,98.80
2023-05-08T23:18:05.238Z,98.80
2023-05-08T23:20:33.040Z,98.90
2023-05-08T23:23:00.743Z,98.90
2023-05-08T23:25:28.569Z,98.80
2023-05-08T23:27:56.399Z,98.90
2023-05-08T23:30:24.090Z,98.80
2023-05-08T23:32:51.836Z,98.90
2023-05-08T23:35:21.290Z,98.90
2023-05-08T23:37:49.013Z,98.90
2023-05-08T23:40:17.292Z,99.00
2023-05-08T23:42:45.032Z,98.90
2023-05-08T23:45:13.068Z,99.00
2023-05-08T23:47:41.373Z,99.00
2023-05-08T23:50:09.561Z,99.00
2023-05-08T23:52:38.644Z,99.00
2023-05-08T23:55:07.461Z,99.10
2023-05-08T23:57:35.192Z,99.10
